createdAt,value
2018-09-28T00:00:18.498Z,0
2018-09-28T00:01:18.487Z,0
2018-09-28T00:02:18.415Z,0
2018-09-28T00:03:18.384Z,0
2018-09-28T00:04:18.449Z,0
2018-09-28T00:05:18.484Z,0
2018-09-28T00:06:18.511Z,0
2018-09-28T00:07:18.406Z,0
2018-09-28T00:08:18.512Z,0
2018-09-28T00:09:18.453Z,0
2018-09-28T00:10:18.572Z,0
2018-09-28T00:11:18.492Z,0
2018-09-28T00:12:18.549Z,0
2018-09-28T00:13:18.458Z,0
2018-09-28T00:14:18.523Z,0
2018-09-28T00:15:18.485Z,0
2018-09-28T00:16:18.508Z,0
2018-09-28T00:17:18.521Z,0
2018-09-28T00:18:18.434Z,0
2018-09-28T00:19:18.479Z,0
2018-09-28T00:20:18.532Z,0
2018-09-28T00:21:18.464Z,0
2018-09-28T00:22:18.519Z,0
2018-09-28T00:23:18.506Z,0
2018-09-28T00:24:18.426Z,0
2018-09-28T00:25:18.497Z,0
2018-09-28T00:26:18.467Z,0
2018-09-28T00:27:18.517Z,0
2018-09-28T00:28:18.500Z,0
2018-09-28T00:29:18.427Z,0
2018-09-28T00:30:18.493Z,0
2018-09-28T00:31:18.459Z,0
2018-09-28T00:32:18.507Z,0
2018-09-28T00:33:18.441Z,0
2018-09-28T00:34:18.407Z,0
2018-09-28T00:35:18.522Z,0
2018-09-28T00:36:18.404Z,0
2018-09-28T00:37:18.476Z,0
2018-09-28T00:38:18.412Z,0
2018-09-28T00:39:18.568Z,0
2018-09-28T00:40:18.483Z,0
2018-09-28T00:41:18.533Z,0
2018-09-28T00:42:18.464Z,0
2018-09-28T00:43:18.491Z,0
2018-09-28T00:44:18.536Z,0
2018-09-28T00:45:18.510Z,0
2018-09-28T00:46:18.538Z,0
2018-09-28T00:47:18.539Z,0
2018-09-28T00:48:18.515Z,0
2018-09-28T00:49:18.471Z,0
2018-09-28T00:50:18.486Z,0
2018-09-28T00:51:18.547Z,0
2018-09-28T00:52:18.451Z,0
2018-09-28T00:53:18.440Z,0
2018-09-28T00:54:18.424Z,0
2018-09-28T00:55:18.515Z,0
2018-09-28T00:56:18.515Z,0
2018-09-28T00:57:18.508Z,0
2018-09-28T00:58:18.440Z,0
2018-09-28T00:59:18.438Z,0
2018-09-28T01:00:18.581Z,0
2018-09-28T01:01:18.494Z,0
2018-09-28T01:02:18.444Z,0
2018-09-28T01:03:18.464Z,0
2018-09-28T01:04:18.550Z,0
2018-09-28T01:05:18.567Z,0
2018-09-28T01:06:18.546Z,0
2018-09-28T01:07:18.467Z,0
2018-09-28T01:08:18.453Z,0
2018-09-28T01:09:18.498Z,0
2018-09-28T01:10:18.516Z,0
2018-09-28T01:11:18.442Z,0
2018-09-28T01:12:18.603Z,0
2018-09-28T01:13:18.546Z,0
2018-09-28T01:14:18.592Z,0
2018-09-28T01:15:18.556Z,0
2018-09-28T01:16:18.576Z,0
2018-09-28T01:17:18.479Z,0
2018-09-28T01:18:18.492Z,0
2018-09-28T01:19:18.548Z,0
2018-09-28T01:20:18.490Z,0
2018-09-28T01:21:18.573Z,0
2018-09-28T01:22:18.460Z,0
2018-09-28T01:23:18.448Z,0
2018-09-28T01:24:18.457Z,0
2018-09-28T01:25:18.456Z,0
2018-09-28T01:26:18.457Z,0
2018-09-28T01:27:18.536Z,0
2018-09-28T01:28:18.467Z,0
2018-09-28T01:29:18.467Z,0
2018-09-28T01:30:18.541Z,0
2018-09-28T01:31:18.533Z,0
2018-09-28T01:32:18.535Z,0
2018-09-28T01:33:18.469Z,0
2018-09-28T01:34:18.546Z,0
2018-09-28T01:35:18.571Z,0
2018-09-28T01:36:18.571Z,0
2018-09-28T01:37:18.580Z,0
2018-09-28T01:38:18.520Z,0
2018-09-28T01:39:18.589Z,0
2018-09-28T01:40:18.588Z,0
2018-09-28T01:41:18.529Z,0
2018-09-28T01:42:18.547Z,0
2018-09-28T01:43:18.548Z,0
2018-09-28T01:44:18.512Z,0
2018-09-28T01:45:18.567Z,0
2018-09-28T01:46:18.491Z,0
2018-09-28T01:47:18.552Z,0
2018-09-28T01:48:18.534Z,0
2018-09-28T01:49:18.527Z,0
2018-09-28T01:50:18.575Z,0
2018-09-28T01:51:18.536Z,0
2018-09-28T01:52:18.555Z,0
2018-09-28T01:53:18.562Z,0
2018-09-28T01:54:18.575Z,0
2018-09-28T01:55:18.477Z,0
2018-09-28T01:56:18.557Z,0
2018-09-28T01:57:18.559Z,0
2018-09-28T01:58:18.571Z,0
2018-09-28T01:59:18.484Z,0
2018-09-28T02:00:18.542Z,0
2018-09-28T02:01:18.594Z,0
2018-09-28T02:02:18.593Z,0
2018-09-28T02:03:18.523Z,0
2018-09-28T02:04:18.567Z,0
2018-09-28T02:05:18.572Z,0
2018-09-28T02:06:18.498Z,0
2018-09-28T02:07:18.509Z,0
2018-09-28T02:08:18.504Z,0
2018-09-28T02:09:18.505Z,0
2018-09-28T02:10:18.569Z,0
2018-09-28T02:11:18.506Z,0
2018-09-28T02:12:18.567Z,0
2018-09-28T02:13:18.573Z,0
2018-09-28T02:14:18.548Z,0
2018-09-28T02:15:18.534Z,0
2018-09-28T02:16:18.514Z,0
2018-09-28T02:17:18.605Z,0
2018-09-28T02:18:18.593Z,0
2018-09-28T02:19:18.582Z,0
2018-09-28T02:20:18.602Z,0
2018-09-28T02:21:18.588Z,0
2018-09-28T02:22:18.714Z,0
2018-09-28T02:23:18.580Z,0
2018-09-28T02:24:18.572Z,0
2018-09-28T02:25:18.544Z,0
2018-09-28T02:26:18.577Z,0
2018-09-28T02:27:18.575Z,0
2018-09-28T02:28:18.505Z,0
2018-09-28T02:29:18.579Z,0
2018-09-28T02:30:18.507Z,0
2018-09-28T02:31:18.587Z,0
2018-09-28T02:32:18.505Z,0
2018-09-28T02:33:18.581Z,0
2018-09-28T02:34:18.602Z,0
2018-09-28T02:35:18.519Z,0
2018-09-28T02:36:18.600Z,0
2018-09-28T02:37:18.471Z,0
2018-09-28T02:38:18.599Z,0
2018-09-28T02:39:18.610Z,0
2018-09-28T02:40:18.557Z,0
2018-09-28T02:41:18.600Z,0
2018-09-28T02:42:18.527Z,0
2018-09-28T02:43:18.603Z,0
2018-09-28T02:44:18.590Z,0
2018-09-28T02:45:18.511Z,0
2018-09-28T02:46:18.493Z,0
2018-09-28T02:47:18.578Z,0
2018-09-28T02:48:18.584Z,0
2018-09-28T02:49:18.602Z,0
2018-09-28T02:50:18.580Z,0
2018-09-28T02:51:18.467Z,0
2018-09-28T02:52:18.543Z,0
2018-09-28T02:53:18.583Z,0
2018-09-28T02:54:18.497Z,0
2018-09-28T02:55:18.538Z,0
2018-09-28T02:56:18.536Z,0
2018-09-28T02:57:18.604Z,0
2018-09-28T02:58:18.534Z,0
2018-09-28T02:59:18.606Z,0
2018-09-28T03:00:18.606Z,0
2018-09-28T03:01:18.543Z,0
2018-09-28T03:02:18.539Z,0
2018-09-28T03:03:18.542Z,0
2018-09-28T03:04:18.604Z,0
2018-09-28T03:05:18.532Z,0
2018-09-28T03:06:18.630Z,0
2018-09-28T03:07:18.498Z,0
2018-09-28T03:08:18.535Z,0
2018-09-28T03:09:18.528Z,0
2018-09-28T03:10:18.604Z,0
2018-09-28T03:11:18.536Z,0
2018-09-28T03:12:18.539Z,0
2018-09-28T03:13:18.619Z,0
2018-09-28T03:14:18.533Z,0
2018-09-28T03:15:18.585Z,0
2018-09-28T03:16:18.663Z,0
2018-09-28T03:17:18.535Z,0
2018-09-28T03:18:18.697Z,0
2018-09-28T03:19:18.684Z,0
2018-09-28T03:20:18.648Z,0
2018-09-28T03:21:18.619Z,0
2018-09-28T03:22:18.581Z,0
2018-09-28T03:23:18.648Z,0
2018-09-28T03:24:18.548Z,0
2018-09-28T03:25:18.551Z,0
2018-09-28T03:26:18.546Z,0
2018-09-28T03:27:18.622Z,0
2018-09-28T03:28:18.546Z,0
2018-09-28T03:29:18.555Z,0
2018-09-28T03:30:18.621Z,0
2018-09-28T03:31:18.557Z,0
2018-09-28T03:32:18.646Z,0
2018-09-28T03:33:18.632Z,0
2018-09-28T03:34:18.596Z,0
2018-09-28T03:35:18.641Z,0
2018-09-28T03:36:18.714Z,0
2018-09-28T03:37:18.652Z,0
2018-09-28T03:38:18.647Z,0
2018-09-28T03:39:18.698Z,0
2018-09-28T03:40:18.672Z,0
2018-09-28T03:41:18.578Z,0
2018-09-28T03:42:18.590Z,0
2018-09-28T03:43:18.660Z,0
2018-09-28T03:44:18.656Z,0
2018-09-28T03:45:18.712Z,0
2018-09-28T03:46:18.560Z,0
2018-09-28T03:47:18.557Z,0
2018-09-28T03:48:18.616Z,0
2018-09-28T03:49:18.680Z,0
2018-09-28T03:50:18.611Z,0
2018-09-28T03:51:18.633Z,0
2018-09-28T03:52:18.561Z,0
2018-09-28T03:53:18.563Z,0
2018-09-28T03:54:18.563Z,0
2018-09-28T03:55:18.516Z,0
2018-09-28T03:56:18.627Z,0
2018-09-28T03:57:18.601Z,0
2018-09-28T03:58:18.565Z,0
2018-09-28T03:59:18.610Z,0
2018-09-28T04:00:18.646Z,0
2018-09-28T04:01:18.605Z,0
2018-09-28T04:02:18.613Z,0
2018-09-28T04:03:18.553Z,0
2018-09-28T04:04:18.591Z,0
2018-09-28T04:05:18.648Z,0
2018-09-28T04:06:18.617Z,0
2018-09-28T04:07:18.617Z,0
2018-09-28T04:08:18.667Z,0
2018-09-28T04:09:18.657Z,0
2018-09-28T04:10:18.591Z,0
2018-09-28T04:11:18.663Z,0
2018-09-28T04:12:18.592Z,0
2018-09-28T04:13:18.586Z,0
2018-09-28T04:14:18.674Z,0
2018-09-28T04:15:18.616Z,0
2018-09-28T04:16:18.624Z,0
2018-09-28T04:17:18.635Z,0
2018-09-28T04:18:18.581Z,0
2018-09-28T04:19:18.668Z,0
2018-09-28T04:20:18.623Z,0
2018-09-28T04:21:18.578Z,0
2018-09-28T04:22:18.684Z,0
2018-09-28T04:23:18.682Z,0
2018-09-28T04:24:18.604Z,0
2018-09-28T04:25:18.804Z,0
2018-09-28T04:26:18.625Z,0
2018-09-28T04:27:18.680Z,0
2018-09-28T04:28:18.690Z,0
2018-09-28T04:29:18.646Z,0
2018-09-28T04:30:18.673Z,0
2018-09-28T04:31:18.668Z,0
2018-09-28T04:32:18.648Z,0
2018-09-28T04:33:18.708Z,0
2018-09-28T04:34:18.647Z,0
2018-09-28T04:35:18.692Z,0
2018-09-28T04:36:18.648Z,0
2018-09-28T04:37:18.609Z,0
2018-09-28T04:38:18.616Z,0
2018-09-28T04:39:18.636Z,0
2018-09-28T04:40:18.601Z,0
2018-09-28T04:41:18.700Z,0
2018-09-28T04:42:18.648Z,0
2018-09-28T04:43:18.741Z,0
2018-09-28T04:44:18.719Z,0
2018-09-28T04:45:18.829Z,0
2018-09-28T04:46:18.705Z,0
2018-09-28T04:47:18.698Z,0
2018-09-28T04:48:18.605Z,0
2018-09-28T04:49:18.695Z,0
2018-09-28T04:50:18.721Z,0
2018-09-28T04:51:18.716Z,0
2018-09-28T04:52:18.647Z,0
2018-09-28T04:53:18.749Z,0
2018-09-28T04:54:18.743Z,0
2018-09-28T04:55:18.684Z,0
2018-09-28T04:56:18.646Z,0
2018-09-28T04:57:18.670Z,0
2018-09-28T04:58:18.727Z,0
2018-09-28T04:59:18.605Z,0
2018-09-28T05:00:18.657Z,0
2018-09-28T05:01:18.664Z,0
2018-09-28T05:02:18.616Z,0
2018-09-28T05:03:18.712Z,0
2018-09-28T05:04:18.700Z,0
2018-09-28T05:05:18.741Z,0
2018-09-28T05:06:18.697Z,0
2018-09-28T05:07:18.627Z,0
2018-09-28T05:08:18.633Z,0
2018-09-28T05:09:18.701Z,0
2018-09-28T05:10:18.628Z,0
2018-09-28T05:11:18.629Z,0
2018-09-28T05:12:18.701Z,0
2018-09-28T05:13:18.708Z,0
2018-09-28T05:14:18.702Z,0
2018-09-28T05:15:18.619Z,0
2018-09-28T05:16:18.624Z,0
2018-09-28T05:17:18.676Z,0
2018-09-28T05:18:18.709Z,0
2018-09-28T05:19:18.673Z,0
2018-09-28T05:20:18.619Z,0
2018-09-28T05:21:18.645Z,0
2018-09-28T05:22:18.707Z,0
2018-09-28T05:23:18.717Z,0
2018-09-28T05:24:18.707Z,0
2018-09-28T05:25:18.744Z,0
2018-09-28T05:26:18.721Z,0
2018-09-28T05:27:18.713Z,0
2018-09-28T05:28:18.630Z,0
2018-09-28T05:29:18.693Z,0
2018-09-28T05:30:18.684Z,0
2018-09-28T05:31:18.843Z,0
2018-09-28T05:32:18.803Z,0
2018-09-28T05:33:18.630Z,0
2018-09-28T05:34:18.711Z,0
2018-09-28T05:35:18.749Z,0
2018-09-28T05:36:18.709Z,0
2018-09-28T05:37:18.691Z,0
2018-09-28T05:38:18.635Z,0
2018-09-28T05:39:18.787Z,0
2018-09-28T05:40:18.712Z,0
2018-09-28T05:41:18.649Z,0
2018-09-28T05:42:18.713Z,0
2018-09-28T05:43:18.651Z,0
2018-09-28T05:44:18.654Z,0
2018-09-28T05:45:18.690Z,0
2018-09-28T05:46:18.698Z,0
2018-09-28T05:47:18.660Z,0
2018-09-28T05:48:18.727Z,0
2018-09-28T05:49:18.660Z,0
2018-09-28T05:50:18.676Z,0
2018-09-28T05:51:18.669Z,0
2018-09-28T05:52:18.735Z,0
2018-09-28T05:53:18.736Z,0
2018-09-28T05:54:18.618Z,0
2018-09-28T05:55:18.734Z,0
2018-09-28T05:56:18.673Z,0
2018-09-28T05:57:18.662Z,0
2018-09-28T05:58:18.801Z,0
2018-09-28T05:59:18.696Z,0
2018-09-28T06:00:18.623Z,0
2018-09-28T06:01:18.670Z,0
2018-09-28T06:02:18.696Z,0
2018-09-28T06:03:18.669Z,0
2018-09-28T06:04:18.679Z,0
2018-09-28T06:05:18.729Z,0
2018-09-28T06:06:18.668Z,0
2018-09-28T06:07:18.667Z,0
2018-09-28T06:08:18.671Z,0
2018-09-28T06:09:18.737Z,0
2018-09-28T06:10:18.729Z,0
2018-09-28T06:11:18.670Z,15
2018-09-28T06:12:18.748Z,14
2018-09-28T06:13:18.668Z,13
2018-09-28T06:14:18.667Z,16
2018-09-28T06:15:18.638Z,20
2018-09-28T06:16:18.670Z,20
2018-09-28T06:17:18.642Z,18
2018-09-28T06:18:18.727Z,19
2018-09-28T06:19:18.738Z,20
2018-09-28T06:20:18.650Z,20
2018-09-28T06:21:18.734Z,19
2018-09-28T06:22:18.736Z,16
2018-09-28T06:23:18.618Z,14
2018-09-28T06:24:18.793Z,14
2018-09-28T06:25:18.679Z,13
2018-09-28T06:26:18.768Z,14
2018-09-28T06:27:18.753Z,16
2018-09-28T06:28:18.716Z,16
2018-09-28T06:29:18.683Z,16
2018-09-28T06:30:18.819Z,14
2018-09-28T06:31:18.672Z,13
2018-09-28T06:32:18.723Z,14
2018-09-28T06:33:18.762Z,16
2018-09-28T06:34:18.760Z,14
2018-09-28T06:35:18.733Z,13
2018-09-28T06:36:18.854Z,15
2018-09-28T06:37:18.794Z,16
2018-09-28T06:38:18.755Z,16
2018-09-28T06:39:18.724Z,14
2018-09-28T06:40:18.718Z,14
2018-09-28T06:41:18.738Z,14
2018-09-28T06:42:18.900Z,15
2018-09-28T06:43:18.738Z,14
2018-09-28T06:44:18.784Z,12
2018-09-28T06:45:18.639Z,8
2018-09-28T06:46:18.694Z,7
2018-09-28T06:47:18.635Z,7
2018-09-28T06:48:18.803Z,8
2018-09-28T06:49:18.636Z,10
2018-09-28T06:50:18.750Z,12
2018-09-28T06:51:18.656Z,13
2018-09-28T06:52:18.700Z,14
2018-09-28T06:53:18.759Z,14
2018-09-28T06:54:18.670Z,15
2018-09-28T06:55:18.720Z,19
2018-09-28T06:56:18.635Z,24
2018-09-28T06:57:18.627Z,28
2018-09-28T06:58:18.734Z,28
2018-09-28T06:59:18.690Z,27
2018-09-28T07:00:18.755Z,23
2018-09-28T07:01:18.631Z,18
2018-09-28T07:02:18.688Z,14
2018-09-28T07:03:18.630Z,14
2018-09-28T07:04:18.653Z,16
2018-09-28T07:05:18.714Z,22
2018-09-28T07:06:18.895Z,25
2018-09-28T07:07:18.775Z,27
2018-09-28T07:08:18.833Z,26
2018-09-28T07:09:18.725Z,22
2018-09-28T07:10:18.790Z,21
2018-09-28T07:11:18.714Z,20
2018-09-28T07:12:18.803Z,21
2018-09-28T07:13:18.718Z,22
2018-09-28T07:14:18.732Z,24
2018-09-28T07:15:18.652Z,26
2018-09-28T07:16:18.844Z,25
2018-09-28T07:17:18.723Z,21
2018-09-28T07:18:18.848Z,19
2018-09-28T07:19:18.741Z,17
2018-09-28T07:20:18.651Z,14
2018-09-28T07:21:18.645Z,14
2018-09-28T07:22:18.649Z,15
2018-09-28T07:23:18.719Z,21
2018-09-28T07:24:18.724Z,27
2018-09-28T07:25:18.694Z,27
2018-09-28T07:26:18.831Z,24
2018-09-28T07:27:18.707Z,23
2018-09-28T07:28:18.690Z,26
2018-09-28T07:29:18.700Z,29
2018-09-28T07:30:18.844Z,33
2018-09-28T07:31:18.748Z,41
2018-09-28T07:32:18.794Z,39
2018-09-28T07:33:18.822Z,34
2018-09-28T07:34:18.827Z,38
2018-09-28T07:35:18.795Z,41
2018-09-28T07:36:18.838Z,41
2018-09-28T07:37:18.860Z,40
2018-09-28T07:38:18.779Z,38
2018-09-28T07:39:18.831Z,38
2018-09-28T07:40:18.729Z,47
2018-09-28T07:41:18.780Z,67
2018-09-28T07:42:18.903Z,76
2018-09-28T07:43:18.747Z,72
2018-09-28T07:44:18.847Z,74
2018-09-28T07:45:18.688Z,110
2018-09-28T07:46:18.795Z,144
2018-09-28T07:47:18.725Z,175
2018-09-28T07:48:18.859Z,200
2018-09-28T07:49:18.879Z,192
2018-09-28T07:50:18.745Z,163
2018-09-28T07:51:18.730Z,154
2018-09-28T07:52:18.714Z,153
2018-09-28T07:53:18.756Z,153
2018-09-28T07:54:18.804Z,150
2018-09-28T07:55:18.731Z,150
2018-09-28T07:56:18.716Z,150
2018-09-28T07:57:18.713Z,146
2018-09-28T07:58:18.847Z,124
2018-09-28T07:59:18.822Z,117
2018-09-28T08:00:18.780Z,125
2018-09-28T08:01:18.784Z,149
2018-09-28T08:02:18.760Z,153
2018-09-28T08:03:18.824Z,122
2018-09-28T08:04:18.838Z,108
2018-09-28T08:05:18.773Z,88
2018-09-28T08:06:18.782Z,83
2018-09-28T08:07:18.754Z,73
2018-09-28T08:08:18.775Z,65
2018-09-28T08:09:18.803Z,62
2018-09-28T08:10:18.773Z,64
2018-09-28T08:11:18.779Z,66
2018-09-28T08:12:18.800Z,64
2018-09-28T08:13:18.697Z,56
2018-09-28T08:14:18.701Z,47
2018-09-28T08:15:18.793Z,40
2018-09-28T08:16:18.827Z,36
2018-09-28T08:17:18.801Z,31
2018-09-28T08:18:18.887Z,30
2018-09-28T08:19:18.783Z,35
2018-09-28T08:20:18.746Z,45
2018-09-28T08:21:18.769Z,54
2018-09-28T08:22:18.795Z,60
2018-09-28T08:23:18.814Z,59
2018-09-28T08:24:18.759Z,62
2018-09-28T08:25:18.849Z,70
2018-09-28T08:26:18.856Z,79
2018-09-28T08:27:18.879Z,82
2018-09-28T08:28:18.860Z,83
2018-09-28T08:29:18.803Z,91
2018-09-28T08:30:18.812Z,98
2018-09-28T08:31:18.896Z,100
2018-09-28T08:32:18.769Z,96
2018-09-28T08:33:18.756Z,90
2018-09-28T08:34:18.784Z,88
2018-09-28T08:35:18.840Z,96
2018-09-28T08:36:18.852Z,112
2018-09-28T08:37:18.844Z,120
2018-09-28T08:38:18.843Z,125
2018-09-28T08:39:18.849Z,126
2018-09-28T08:40:18.724Z,116
2018-09-28T08:41:18.851Z,117
2018-09-28T08:42:18.781Z,129
2018-09-28T08:43:18.781Z,150
2018-09-28T08:44:18.780Z,149
2018-09-28T08:45:18.778Z,143
2018-09-28T08:46:18.854Z,134
2018-09-28T08:47:18.851Z,124
2018-09-28T08:48:18.852Z,118
2018-09-28T08:49:18.903Z,116
2018-09-28T08:50:18.801Z,117
2018-09-28T08:51:18.805Z,121
2018-09-28T08:52:18.856Z,115
2018-09-28T08:53:18.874Z,118
2018-09-28T08:54:18.853Z,124
2018-09-28T08:55:18.900Z,131
2018-09-28T08:56:18.814Z,151
2018-09-28T08:57:18.857Z,154
2018-09-28T08:58:18.778Z,158
2018-09-28T08:59:18.755Z,168
2018-09-28T09:00:18.801Z,185
2018-09-28T09:01:18.798Z,207
2018-09-28T09:02:18.950Z,223
2018-09-28T09:03:18.881Z,235
2018-09-28T09:04:18.834Z,174
2018-09-28T09:05:18.784Z,274
2018-09-28T09:06:18.824Z,301
2018-09-28T09:07:18.891Z,313
2018-09-28T09:08:18.791Z,324
2018-09-28T09:09:18.824Z,327
2018-09-28T09:10:18.844Z,329
2018-09-28T09:11:18.770Z,322
2018-09-28T09:12:18.839Z,293
2018-09-28T09:13:18.846Z,288
2018-09-28T09:14:18.887Z,278
2018-09-28T09:15:18.841Z,265
2018-09-28T09:16:18.803Z,284
2018-09-28T09:17:18.810Z,245
2018-09-28T09:18:18.882Z,230
2018-09-28T09:19:18.879Z,340
2018-09-28T09:20:18.874Z,696
2018-09-28T09:21:18.877Z,735
2018-09-28T09:22:18.876Z,761
2018-09-28T09:23:18.813Z,518
2018-09-28T09:24:18.848Z,540
2018-09-28T09:25:18.848Z,480
2018-09-28T09:26:18.816Z,724
2018-09-28T09:27:18.800Z,666
2018-09-28T09:28:18.879Z,610
2018-09-28T09:29:18.907Z,655
2018-09-28T09:30:18.930Z,643
2018-09-28T09:31:18.846Z,611
2018-09-28T09:32:18.853Z,695
2018-09-28T09:34:18.900Z,721
2018-09-28T09:35:18.851Z,686
2018-09-28T09:36:18.858Z,809
2018-09-28T09:37:18.880Z,843
2018-09-28T09:38:18.914Z,652
2018-09-28T09:39:18.867Z,522
2018-09-28T09:40:18.939Z,474
2018-09-28T09:41:18.804Z,467
2018-09-28T09:42:18.806Z,465
2018-09-28T09:43:18.875Z,460
2018-09-28T09:44:18.825Z,427
2018-09-28T09:45:18.823Z,444
2018-09-28T09:46:19.005Z,457
2018-09-28T09:47:18.883Z,489
2018-09-28T09:48:18.880Z,507
2018-09-28T09:49:18.827Z,532
2018-09-28T09:50:18.828Z,534
2018-09-28T09:51:18.828Z,536
2018-09-28T09:52:18.902Z,527
2018-09-28T09:53:18.829Z,513
2018-09-28T09:54:18.906Z,525
2018-09-28T09:55:18.751Z,536
2018-09-28T09:56:18.757Z,562
2018-09-28T09:57:18.741Z,592
2018-09-28T09:58:18.860Z,606
2018-09-28T09:59:18.848Z,606
2018-09-28T10:00:18.820Z,571
2018-09-28T10:01:18.847Z,557
2018-09-28T10:02:18.756Z,539
2018-09-28T10:03:18.850Z,528
2018-09-28T10:04:18.810Z,520
2018-09-28T10:05:18.948Z,485
2018-09-28T10:06:18.826Z,457
2018-09-28T10:07:18.943Z,440
2018-09-28T10:08:18.903Z,400
2018-09-28T10:09:18.883Z,352
2018-09-28T10:10:18.906Z,301
2018-09-28T10:11:18.902Z,270
2018-09-28T10:12:18.937Z,257
2018-09-28T10:13:18.931Z,250
2018-09-28T10:14:18.896Z,247
2018-09-28T10:15:18.949Z,242
2018-09-28T10:16:18.815Z,242
2018-09-28T10:17:18.930Z,248
2018-09-28T10:18:18.829Z,254
2018-09-28T10:19:18.994Z,249
2018-09-28T10:20:18.972Z,239
2018-09-28T10:21:18.866Z,240
2018-09-28T10:22:18.977Z,249
2018-09-28T10:23:18.930Z,274
2018-09-28T10:24:18.946Z,308
2018-09-28T10:25:18.951Z,351
2018-09-28T10:26:18.843Z,395
2018-09-28T10:27:18.998Z,423
2018-09-28T10:28:18.851Z,459
2018-09-28T10:29:18.960Z,493
2018-09-28T10:30:18.883Z,489
2018-09-28T10:31:18.924Z,439
2018-09-28T10:32:18.886Z,392
2018-09-28T10:33:18.855Z,354
2018-09-28T10:34:18.980Z,349
2018-09-28T10:35:18.893Z,392
2018-09-28T10:36:18.997Z,426
2018-09-28T10:37:18.891Z,417
2018-09-28T10:38:18.835Z,394
2018-09-28T10:39:18.914Z,391
2018-09-28T10:40:18.958Z,404
2018-09-28T10:41:19.003Z,430
2018-09-28T10:42:18.890Z,466
2018-09-28T10:43:18.885Z,502
2018-09-28T10:44:18.951Z,519
2018-09-28T10:45:18.973Z,526
2018-09-28T10:46:18.858Z,535
2018-09-28T10:47:18.919Z,533
2018-09-28T10:48:18.928Z,522
2018-09-28T10:49:18.873Z,558
2018-09-28T10:50:18.869Z,545
2018-09-28T10:51:18.898Z,627
2018-09-28T10:52:19.116Z,521
2018-09-28T10:53:18.891Z,554
2018-09-28T10:54:18.839Z,651
2018-09-28T10:56:18.921Z,590
2018-09-28T10:57:18.889Z,702
2018-09-28T10:58:18.865Z,754
2018-09-28T10:59:18.844Z,561
2018-09-28T11:00:19.002Z,525
2018-09-28T11:01:18.906Z,473
2018-09-28T11:02:18.921Z,439
2018-09-28T11:03:19.034Z,410
2018-09-28T11:04:18.927Z,372
2018-09-28T11:05:18.962Z,360
2018-09-28T11:06:18.925Z,365
2018-09-28T11:07:18.947Z,394
2018-09-28T11:08:18.929Z,427
2018-09-28T11:09:18.996Z,434
2018-09-28T11:10:18.945Z,449
2018-09-28T11:11:18.910Z,498
2018-09-28T11:12:18.917Z,499
2018-09-28T11:13:18.947Z,525
2018-09-28T11:14:18.994Z,557
2018-09-28T11:15:19.038Z,587
2018-09-28T11:16:18.887Z,551
2018-09-28T11:17:18.958Z,518
2018-09-28T11:18:18.989Z,502
2018-09-28T11:19:18.858Z,509
2018-09-28T11:20:18.956Z,500
2018-09-28T11:21:18.918Z,476
2018-09-28T11:22:18.861Z,475
2018-09-28T11:23:18.956Z,475
2018-09-28T11:24:19.064Z,464
2018-09-28T11:25:18.864Z,479
2018-09-28T11:26:18.930Z,494
2018-09-28T11:27:19.005Z,507
2018-09-28T11:28:18.963Z,540
2018-09-28T11:29:19.003Z,516
2018-09-28T11:30:18.926Z,493
2018-09-28T11:31:18.985Z,437
2018-09-28T11:32:18.887Z,416
2018-09-28T11:33:19.048Z,416
2018-09-28T11:34:18.963Z,428
2018-09-28T11:35:18.934Z,444
2018-09-28T11:36:19.006Z,476
2018-09-28T11:37:18.886Z,506
2018-09-28T11:38:19.002Z,537
2018-09-28T11:39:19.003Z,543
2018-09-28T11:40:18.998Z,541
2018-09-28T11:41:18.910Z,538
2018-09-28T11:42:18.943Z,527
2018-09-28T11:43:18.983Z,525
2018-09-28T11:44:18.871Z,522
2018-09-28T11:45:18.928Z,499
2018-09-28T11:46:18.979Z,482
2018-09-28T11:47:18.947Z,480
2018-09-28T11:48:19.020Z,482
2018-09-28T11:49:18.951Z,498
2018-09-28T11:50:18.939Z,536
2018-09-28T11:51:18.991Z,541
2018-09-28T11:52:18.904Z,527
2018-09-28T11:53:18.924Z,492
2018-09-28T11:54:18.953Z,450
2018-09-28T11:55:19.044Z,408
2018-09-28T11:56:18.964Z,385
2018-09-28T11:57:18.959Z,375
2018-09-28T11:58:19.018Z,368
2018-09-28T11:59:18.988Z,360
2018-09-28T12:00:18.987Z,345
2018-09-28T12:01:18.977Z,321
2018-09-28T12:02:19.013Z,301
2018-09-28T12:03:18.976Z,290
2018-09-28T12:04:19.002Z,283
2018-09-28T12:05:18.985Z,277
2018-09-28T12:06:19.008Z,272
2018-09-28T12:07:18.987Z,271
2018-09-28T12:08:18.973Z,276
2018-09-28T12:09:18.985Z,278
2018-09-28T12:10:18.971Z,276
2018-09-28T12:11:18.909Z,269
2018-09-28T12:12:19.020Z,260
2018-09-28T12:13:18.975Z,262
2018-09-28T12:14:18.976Z,276
2018-09-28T12:15:18.991Z,297
2018-09-28T12:16:18.932Z,310
2018-09-28T12:17:18.931Z,320
2018-09-28T12:18:18.960Z,315
2018-09-28T12:19:18.960Z,315
2018-09-28T12:20:18.993Z,310
2018-09-28T12:21:19.045Z,305
2018-09-28T12:22:18.933Z,302
2018-09-28T12:23:18.934Z,319
2018-09-28T12:24:19.011Z,353
2018-09-28T12:25:18.997Z,383
2018-09-28T12:26:18.938Z,402
2018-09-28T12:27:19.072Z,416
2018-09-28T12:28:19.012Z,416
2018-09-28T12:29:19.007Z,408
2018-09-28T12:30:19.000Z,425
2018-09-28T12:31:18.945Z,426
2018-09-28T12:32:18.936Z,404
2018-09-28T12:33:19.072Z,382
2018-09-28T12:34:18.944Z,360
2018-09-28T12:35:19.009Z,335
2018-09-28T12:36:19.061Z,320
2018-09-28T12:37:18.944Z,329
2018-09-28T12:38:18.943Z,334
2018-09-28T12:39:19.120Z,323
2018-09-28T12:40:18.955Z,334
2018-09-28T12:41:18.966Z,344
2018-09-28T12:42:18.992Z,342
2018-09-28T12:43:19.053Z,359
2018-09-28T12:44:19.170Z,351
2018-09-28T12:45:19.040Z,355
2018-09-28T12:46:18.933Z,359
2018-09-28T12:47:19.000Z,372
2018-09-28T12:48:19.131Z,427
2018-09-28T12:49:18.984Z,407
2018-09-28T12:50:18.962Z,430
2018-09-28T12:51:18.999Z,427
2018-09-28T12:52:19.045Z,426
2018-09-28T12:53:19.000Z,421
2018-09-28T12:54:19.007Z,622
2018-09-28T12:55:19.005Z,444
2018-09-28T12:56:19.040Z,440
2018-09-28T12:57:18.973Z,504
2018-09-28T12:58:18.955Z,534
2018-09-28T12:59:19.027Z,493
2018-09-28T13:00:19.003Z,456
2018-09-28T13:01:19.029Z,428
2018-09-28T13:02:19.094Z,451
2018-09-28T13:03:19.029Z,402
2018-09-28T13:04:19.026Z,353
2018-09-28T13:05:18.927Z,336
2018-09-28T13:06:19.079Z,330
2018-09-28T13:07:19.034Z,310
2018-09-28T13:08:19.017Z,287
2018-09-28T13:09:19.062Z,256
2018-09-28T13:10:19.001Z,234
2018-09-28T13:11:19.081Z,222
2018-09-28T13:12:19.132Z,215
2018-09-28T13:13:19.047Z,204
2018-09-28T13:14:19.115Z,181
2018-09-28T13:15:19.037Z,165
2018-09-28T13:16:19.014Z,167
2018-09-28T13:17:18.974Z,172
2018-09-28T13:18:19.115Z,187
2018-09-28T13:19:19.008Z,215
2018-09-28T13:20:19.147Z,235
2018-09-28T13:21:19.082Z,260
2018-09-28T13:22:19.006Z,262
2018-09-28T13:23:19.049Z,275
2018-09-28T13:24:18.995Z,278
2018-09-28T13:25:18.988Z,269
2018-09-28T13:26:19.027Z,289
2018-09-28T13:27:19.017Z,314
2018-09-28T13:28:19.044Z,338
2018-09-28T13:29:19.097Z,354
2018-09-28T13:30:19.115Z,383
2018-09-28T13:31:19.083Z,360
2018-09-28T13:32:18.993Z,361
2018-09-28T13:33:19.068Z,423
2018-09-28T13:34:18.952Z,480
2018-09-28T13:35:18.955Z,512
2018-09-28T13:36:19.108Z,486
2018-09-28T13:37:18.948Z,482
2018-09-28T13:38:19.135Z,389
2018-09-28T13:39:18.986Z,320
2018-09-28T13:40:18.992Z,251
2018-09-28T13:41:18.956Z,262
2018-09-28T13:42:19.094Z,216
2018-09-28T13:43:18.993Z,208
2018-09-28T13:44:19.037Z,173
2018-09-28T13:45:19.156Z,169
2018-09-28T13:46:19.070Z,157
2018-09-28T13:47:19.094Z,134
2018-09-28T13:48:19.185Z,117
2018-09-28T13:49:19.093Z,114
2018-09-28T13:50:19.179Z,114
2018-09-28T13:51:19.064Z,121
2018-09-28T13:52:19.086Z,139
2018-09-28T13:53:19.009Z,150
2018-09-28T13:54:19.099Z,160
2018-09-28T13:55:19.066Z,168
2018-09-28T13:56:19.032Z,173
2018-09-28T13:57:19.000Z,182
2018-09-28T13:58:19.032Z,189
2018-09-28T13:59:19.077Z,200
2018-09-28T14:00:19.179Z,208
2018-09-28T14:01:19.074Z,212
2018-09-28T14:02:19.096Z,214
2018-09-28T14:03:19.077Z,231
2018-09-28T14:04:19.084Z,570
2018-09-28T14:05:19.077Z,271
2018-09-28T14:06:19.130Z,648
2018-09-28T14:07:19.219Z,442
2018-09-28T14:08:19.051Z,249
2018-09-28T14:09:19.078Z,239
2018-09-28T14:10:19.174Z,200
2018-09-28T14:11:19.041Z,184
2018-09-28T14:12:19.040Z,176
2018-09-28T14:13:19.035Z,159
2018-09-28T14:14:19.124Z,146
2018-09-28T14:15:19.040Z,145
2018-09-28T14:16:19.009Z,148
2018-09-28T14:17:19.087Z,152
2018-09-28T14:18:19.196Z,159